sensor_id;sensor_type;location;lat;lon;timestamp;pressure;altitude;pressure_sealevel;temperature;humidity
32197;BME280;18697;42.770;23.400;2022-10-16T00:00:42;96275.19;;;17.84;52.52
32197;BME280;18697;42.770;23.400;2022-10-16T00:03:09;96279.97;;;17.72;51.43
32197;BME280;18697;42.770;23.400;2022-10-16T00:05:40;96288.66;;;17.75;52.32
32197;BME280;18697;42.770;23.400;2022-10-16T00:08:06;96285.03;;;17.68;54.28
32197;BME280;18697;42.770;23.400;2022-10-16T00:10:32;96276.75;;;17.59;55.47
32197;BME280;18697;42.770;23.400;2022-10-16T00:12:58;96286.81;;;17.46;53.65
32197;BME280;18697;42.770;23.400;2022-10-16T00:15:23;96295.16;;;15.94;50.08
32197;BME280;18697;42.770;23.400;2022-10-16T00:17:48;96296.88;;;15.92;62.35
32197;BME280;18697;42.770;23.400;2022-10-16T00:20:14;96297.06;;;16.32;61.20
32197;BME280;18697;42.770;23.400;2022-10-16T00:22:39;96297.59;;;16.36;60.03
32197;BME280;18697;42.770;23.400;2022-10-16T00:25:05;96296.56;;;16.34;59.95
32197;BME280;18697;42.770;23.400;2022-10-16T00:27:30;96303.75;;;16.55;59.73
32197;BME280;18697;42.770;23.400;2022-10-16T00:29:55;96299.31;;;16.49;58.75
32197;BME280;18697;42.770;23.400;2022-10-16T00:32:21;96312.38;;;16.37;60.66
32197;BME280;18697;42.770;23.400;2022-10-16T00:34:46;96301.78;;;16.61;59.51
32197;BME280;18697;42.770;23.400;2022-10-16T00:37:12;96309.56;;;16.87;59.19
32197;BME280;18697;42.770;23.400;2022-10-16T00:39:37;96309.53;;;16.17;52.25
32197;BME280;18697;42.770;23.400;2022-10-16T00:42:02;96310.91;;;15.92;59.13
32197;BME280;18697;42.770;23.400;2022-10-16T00:44:44;96313.88;;;15.88;54.99
32197;BME280;18697;42.770;23.400;2022-10-16T00:47:37;96302.69;;;16.03;57.94
32197;BME280;18697;42.770;23.400;2022-10-16T00:50:11;96303.25;;;16.22;59.21
32197;BME280;18697;42.770;23.400;2022-10-16T00:52:44;96302.78;;;16.43;57.75
32197;BME280;18697;42.770;23.400;2022-10-16T00:55:11;96296.56;;;16.69;58.37
32197;BME280;18697;42.770;23.400;2022-10-16T00:57:37;96302.00;;;16.93;57.77
32197;BME280;18697;42.770;23.400;2022-10-16T01:00:06;96303.97;;;17.07;58.25
32197;BME280;18697;42.770;23.400;2022-10-16T01:02:32;96298.09;;;17.05;55.70
32197;BME280;18697;42.770;23.400;2022-10-16T01:04:57;96308.31;;;17.08;56.23
32197;BME280;18697;42.770;23.400;2022-10-16T01:10:30;96312.16;;;17.31;56.12
32197;BME280;18697;42.770;23.400;2022-10-16T01:13:07;96313.91;;;17.49;55.53
32197;BME280;18697;42.770;23.400;2022-10-16T01:15:52;96317.97;;;17.48;55.44
32197;BME280;18697;42.770;23.400;2022-10-16T01:18:44;96310.94;;;17.58;55.01
32197;BME280;18697;42.770;23.400;2022-10-16T01:21:18;96297.34;;;17.30;52.14
32197;BME280;18697;42.770;23.400;2022-10-16T01:29:49;96299.19;;;16.23;56.10
32197;BME280;18697;42.770;23.400;2022-10-16T01:32:34;96304.50;;;15.23;56.27
32197;BME280;18697;42.770;23.400;2022-10-16T01:37:50;96321.63;;;14.77;62.24
32197;BME280;18697;42.770;23.400;2022-10-16T01:40:19;96317.66;;;15.32;61.48
32197;BME280;18697;42.770;23.400;2022-10-16T01:42:48;96314.66;;;15.74;60.33
32197;BME280;18697;42.770;23.400;2022-10-16T01:45:19;96318.81;;;16.08;59.89
32197;BME280;18697;42.770;23.400;2022-10-16T01:47:46;96326.19;;;16.40;59.21
32197;BME280;18697;42.770;23.400;2022-10-16T01:50:15;96319.31;;;16.71;57.67
32197;BME280;18697;42.770;23.400;2022-10-16T01:52:44;96324.75;;;16.95;55.96
32197;BME280;18697;42.770;23.400;2022-10-16T01:55:15;96321.78;;;17.24;55.26
32197;BME280;18697;42.770;23.400;2022-10-16T01:57:45;96326.13;;;17.46;55.08
32197;BME280;18697;42.770;23.400;2022-10-16T02:00:13;96337.75;;;17.59;54.15
32197;BME280;18697;42.770;23.400;2022-10-16T02:02:44;96336.22;;;17.58;54.36
32197;BME280;18697;42.770;23.400;2022-10-16T02:05:32;96332.34;;;17.55;54.05
32197;BME280;18697;42.770;23.400;2022-10-16T02:07:59;96326.31;;;17.62;54.25
32197;BME280;18697;42.770;23.400;2022-10-16T02:10:25;96330.47;;;17.67;53.67
32197;BME280;18697;42.770;23.400;2022-10-16T02:12:54;96337.53;;;17.62;53.91
32197;BME280;18697;42.770;23.400;2022-10-16T02:15:20;96345.22;;;17.41;53.27
32197;BME280;18697;42.770;23.400;2022-10-16T02:17:45;96340.84;;;17.61;54.14
32197;BME280;18697;42.770;23.400;2022-10-16T02:20:11;96342.47;;;17.47;52.82
32197;BME280;18697;42.770;23.400;2022-10-16T02:22:40;96344.50;;;17.47;53.78
32197;BME280;18697;42.770;23.400;2022-10-16T02:25:46;96351.13;;;17.44;53.51
32197;BME280;18697;42.770;23.400;2022-10-16T02:28:17;96346.69;;;17.37;52.93
32197;BME280;18697;42.770;23.400;2022-10-16T02:31:04;96350.97;;;17.12;53.64
32197;BME280;18697;42.770;23.400;2022-10-16T02:33:33;96352.38;;;17.02;53.94
32197;BME280;18697;42.770;23.400;2022-10-16T02:36:00;96348.50;;;17.20;54.91
32197;BME280;18697;42.770;23.400;2022-10-16T02:38:26;96347.47;;;17.17;54.84
32197;BME280;18697;42.770;23.400;2022-10-16T02:40:52;96343.09;;;17.16;52.85
32197;BME280;18697;42.770;23.400;2022-10-16T02:43:19;96340.44;;;17.27;54.13
32197;BME280;18697;42.770;23.400;2022-10-16T02:45:45;96352.16;;;17.26;53.14
32197;BME280;18697;42.770;23.400;2022-10-16T02:48:10;96347.75;;;17.19;52.51
32197;BME280;18697;42.770;23.400;2022-10-16T02:50:36;96351.47;;;17.11;53.31
32197;BME280;18697;42.770;23.400;2022-10-16T02:53:01;96352.19;;;17.05;54.44
32197;BME280;18697;42.770;23.400;2022-10-16T02:55:26;96359.06;;;17.04;52.80
32197;BME280;18697;42.770;23.400;2022-10-16T02:57:53;96369.16;;;16.96;54.33
32197;BME280;18697;42.770;23.400;2022-10-16T03:00:19;96360.44;;;17.15;54.51
32197;BME280;18697;42.770;23.400;2022-10-16T03:02:45;96356.72;;;17.23;53.21
32197;BME280;18697;42.770;23.400;2022-10-16T03:05:12;96365.22;;;17.29;52.63
32197;BME280;18697;42.770;23.400;2022-10-16T03:07:37;96360.09;;;17.48;53.63
32197;BME280;18697;42.770;23.400;2022-10-16T03:10:03;96364.59;;;17.39;53.81
32197;BME280;18697;42.770;23.400;2022-10-16T03:12:29;96365.84;;;17.38;52.31
32197;BME280;18697;42.770;23.400;2022-10-16T03:14:55;96365.63;;;17.62;53.28
32197;BME280;18697;42.770;23.400;2022-10-16T03:17:20;96368.88;;;17.35;52.77
32197;BME280;18697;42.770;23.400;2022-10-16T03:19:45;96368.66;;;17.38;52.92
32197;BME280;18697;42.770;23.400;2022-10-16T03:22:11;96373.22;;;17.36;52.38
32197;BME280;18697;42.770;23.400;2022-10-16T03:24:36;96385.22;;;17.16;51.14
32197;BME280;18697;42.770;23.400;2022-10-16T03:27:01;96377.31;;;16.80;52.45
32197;BME280;18697;42.770;23.400;2022-10-16T03:29:27;96376.22;;;16.92;53.82
32197;BME280;18697;42.770;23.400;2022-10-16T03:31:54;96370.72;;;16.83;54.39
32197;BME280;18697;42.770;23.400;2022-10-16T03:34:19;96374.19;;;17.13;54.79
32197;BME280;18697;42.770;23.400;2022-10-16T03:36:45;96377.44;;;17.46;53.68
32197;BME280;18697;42.770;23.400;2022-10-16T03:39:10;96366.84;;;17.56;53.56
32197;BME280;18697;42.770;23.400;2022-10-16T03:41:35;96366.78;;;17.30;50.33
32197;BME280;18697;42.770;23.400;2022-10-16T03:44:01;96369.50;;;17.04;48.54
32197;BME280;18697;42.770;23.400;2022-10-16T03:46:26;96371.63;;;16.74;54.78
32197;BME280;18697;42.770;23.400;2022-10-16T03:48:52;96377.44;;;16.70;52.89
32197;BME280;18697;42.770;23.400;2022-10-16T03:51:17;96370.47;;;16.51;55.75
32197;BME280;18697;42.770;23.400;2022-10-16T03:53:43;96371.53;;;16.54;55.18
32197;BME280;18697;42.770;23.400;2022-10-16T03:56:08;96369.19;;;16.82;54.11
32197;BME280;18697;42.770;23.400;2022-10-16T03:58:33;96371.34;;;17.07;54.84
32197;BME280;18697;42.770;23.400;2022-10-16T04:00:59;96369.56;;;17.30;53.71
32197;BME280;18697;42.770;23.400;2022-10-16T04:03:24;96374.84;;;17.42;53.15
32197;BME280;18697;42.770;23.400;2022-10-16T04:05:49;96375.94;;;17.10;49.40
32197;BME280;18697;42.770;23.400;2022-10-16T04:08:15;96372.75;;;16.82;53.52
32197;BME280;18697;42.770;23.400;2022-10-16T04:10:42;96371.03;;;16.55;49.67
32197;BME280;18697;42.770;23.400;2022-10-16T04:13:08;96380.34;;;15.88;54.56
32197;BME280;18697;42.770;23.400;2022-10-16T04:15:34;96376.97;;;15.84;52.26
32197;BME280;18697;42.770;23.400;2022-10-16T04:17:59;96385.38;;;15.45;51.11
32197;BME280;18697;42.770;23.400;2022-10-16T04:20:25;96389.41;;;15.44;56.08
32197;BME280;18697;42.770;23.400;2022-10-16T04:22:50;96396.38;;;15.49;57.87
32197;BME280;18697;42.770;23.400;2022-10-16T04:25:15;96395.47;;;15.66;56.64
32197;BME280;18697;42.770;23.400;2022-10-16T04:27:41;96395.94;;;15.65;57.81
32197;BME280;18697;42.770;23.400;2022-10-16T04:30:06;96388.94;;;15.84;55.79
32197;BME280;18697;42.770;23.400;2022-10-16T04:32:32;96391.56;;;15.88;56.87
32197;BME280;18697;42.770;23.400;2022-10-16T04:34:57;96392.34;;;16.18;56.48
32197;BME280;18697;42.770;23.400;2022-10-16T04:37:23;96394.59;;;16.28;54.97
32197;BME280;18697;42.770;23.400;2022-10-16T04:39:49;96399.88;;;16.41;54.65
32197;BME280;18697;42.770;23.400;2022-10-16T04:42:14;96401.41;;;16.57;53.60
32197;BME280;18697;42.770;23.400;2022-10-16T04:44:39;96411.06;;;16.41;51.14
32197;BME280;18697;42.770;23.400;2022-10-16T04:47:05;96400.44;;;16.45;54.24
32197;BME280;18697;42.770;23.400;2022-10-16T04:49:30;96409.41;;;16.64;54.31
32197;BME280;18697;42.770;23.400;2022-10-16T04:51:56;96413.03;;;16.64;53.31
32197;BME280;18697;42.770;23.400;2022-10-16T04:54:22;96414.19;;;16.72;54.05
32197;BME280;18697;42.770;23.400;2022-10-16T04:56:47;96406.63;;;16.79;53.34
32197;BME280;18697;42.770;23.400;2022-10-16T04:59:15;96411.84;;;16.86;53.93
32197;BME280;18697;42.770;23.400;2022-10-16T05:01:40;96414.94;;;16.88;53.34
32197;BME280;18697;42.770;23.400;2022-10-16T05:04:06;96403.50;;;16.91;52.84
32197;BME280;18697;42.770;23.400;2022-10-16T05:06:32;96416.47;;;16.89;52.56
32197;BME280;18697;42.770;23.400;2022-10-16T05:08:57;96411.53;;;16.98;52.91
32197;BME280;18697;42.770;23.400;2022-10-16T05:11:22;96425.16;;;17.05;52.60
32197;BME280;18697;42.770;23.400;2022-10-16T05:13:48;96425.34;;;17.02;52.08
32197;BME280;18697;42.770;23.400;2022-10-16T05:16:13;96436.38;;;17.05;52.50
32197;BME280;18697;42.770;23.400;2022-10-16T05:18:38;96420.03;;;17.04;51.82
32197;BME280;18697;42.770;23.400;2022-10-16T05:21:04;96430.13;;;16.81;50.75
32197;BME280;18697;42.770;23.400;2022-10-16T05:23:31;96425.28;;;16.82;52.23
32197;BME280;18697;42.770;23.400;2022-10-16T05:25:57;96436.63;;;16.72;51.85
32197;BME280;18697;42.770;23.400;2022-10-16T05:28:28;96435.81;;;16.57;53.07
32197;BME280;18697;42.770;23.400;2022-10-16T05:30:53;96436.63;;;16.72;52.79
32197;BME280;18697;42.770;23.400;2022-10-16T05:33:24;96433.31;;;16.59;54.04
32197;BME280;18697;42.770;23.400;2022-10-16T05:35:50;96433.22;;;16.09;51.82
32197;BME280;18697;42.770;23.400;2022-10-16T05:38:16;96437.97;;;16.18;55.98
32197;BME280;18697;42.770;23.400;2022-10-16T05:40:42;96432.16;;;16.22;56.35
32197;BME280;18697;42.770;23.400;2022-10-16T05:43:07;96440.84;;;16.53;54.01
32197;BME280;18697;42.770;23.400;2022-10-16T05:45:33;96448.19;;;16.95;52.95
32197;BME280;18697;42.770;23.400;2022-10-16T05:47:59;96446.09;;;16.75;51.87
32197;BME280;18697;42.770;23.400;2022-10-16T05:50:25;96449.41;;;17.08;52.62
32197;BME280;18697;42.770;23.400;2022-10-16T05:52:50;96453.88;;;17.70;50.42
32197;BME280;18697;42.770;23.400;2022-10-16T05:55:16;96462.34;;;17.56;51.56
32197;BME280;18697;42.770;23.400;2022-10-16T05:57:41;96461.66;;;17.26;47.63
32197;BME280;18697;42.770;23.400;2022-10-16T06:00:06;96464.28;;;16.65;51.79
32197;BME280;18697;42.770;23.400;2022-10-16T06:02:32;96480.44;;;17.20;50.33
32197;BME280;18697;42.770;23.400;2022-10-16T06:04:57;96475.69;;;17.61;49.01
32197;BME280;18697;42.770;23.400;2022-10-16T06:07:23;96473.06;;;18.18;48.16
32197;BME280;18697;42.770;23.400;2022-10-16T06:09:49;96481.47;;;18.38;46.15
32197;BME280;18697;42.770;23.400;2022-10-16T06:12:15;96482.34;;;18.76;46.67
32197;BME280;18697;42.770;23.400;2022-10-16T06:14:41;96480.88;;;19.12;45.43
32197;BME280;18697;42.770;23.400;2022-10-16T06:17:06;96483.50;;;19.21;45.15
32197;BME280;18697;42.770;23.400;2022-10-16T06:19:32;96480.00;;;19.37;44.50
32197;BME280;18697;42.770;23.400;2022-10-16T06:21:57;96481.97;;;19.63;45.26
32197;BME280;18697;42.770;23.400;2022-10-16T06:24:23;96489.97;;;19.76;44.25
32197;BME280;18697;42.770;23.400;2022-10-16T06:26:49;96489.81;;;19.96;43.74
32197;BME280;18697;42.770;23.400;2022-10-16T06:29:14;96493.72;;;20.04;43.53
32197;BME280;18697;42.770;23.400;2022-10-16T06:31:40;96494.25;;;20.19;43.28
32197;BME280;18697;42.770;23.400;2022-10-16T06:34:05;96498.97;;;20.39;43.01
32197;BME280;18697;42.770;23.400;2022-10-16T06:36:34;96498.75;;;20.54;42.87
32197;BME280;18697;42.770;23.400;2022-10-16T06:39:00;96504.69;;;20.67;42.19
32197;BME280;18697;42.770;23.400;2022-10-16T06:41:25;96506.75;;;20.72;42.20
32197;BME280;18697;42.770;23.400;2022-10-16T06:43:51;96500.59;;;20.79;42.00
32197;BME280;18697;42.770;23.400;2022-10-16T06:46:19;96504.16;;;20.85;41.84
32197;BME280;18697;42.770;23.400;2022-10-16T06:48:45;96506.22;;;20.90;41.58
32197;BME280;18697;42.770;23.400;2022-10-16T06:51:13;96503.41;;;20.90;41.39
32197;BME280;18697;42.770;23.400;2022-10-16T06:53:45;96512.91;;;20.93;41.13
32197;BME280;18697;42.770;23.400;2022-10-16T06:56:13;96511.88;;;21.02;40.98
32197;BME280;18697;42.770;23.400;2022-10-16T06:58:40;96513.66;;;20.71;41.63
32197;BME280;18697;42.770;23.400;2022-10-16T07:01:06;96518.53;;;20.71;41.86
32197;BME280;18697;42.770;23.400;2022-10-16T07:03:32;96517.00;;;20.70;41.66
32197;BME280;18697;42.770;23.400;2022-10-16T07:06:01;96517.75;;;20.64;41.51
32197;BME280;18697;42.770;23.400;2022-10-16T07:08:27;96524.91;;;20.49;43.14
32197;BME280;18697;42.770;23.400;2022-10-16T07:11:08;96522.63;;;20.58;43.27
32197;BME280;18697;42.770;23.400;2022-10-16T07:13:35;96530.06;;;20.61;42.30
32197;BME280;18697;42.770;23.400;2022-10-16T07:16:05;96525.53;;;20.16;43.44
32197;BME280;18697;42.770;23.400;2022-10-16T07:18:32;96528.56;;;20.07;44.79
32197;BME280;18697;42.770;23.400;2022-10-16T07:21:12;96531.44;;;20.23;43.44
32197;BME280;18697;42.770;23.400;2022-10-16T07:23:38;96527.09;;;20.28;44.27
32197;BME280;18697;42.770;23.400;2022-10-16T07:26:04;96525.41;;;20.47;43.70
32197;BME280;18697;42.770;23.400;2022-10-16T07:28:31;96528.91;;;20.31;42.80
32197;BME280;18697;42.770;23.400;2022-10-16T07:31:07;96530.63;;;20.12;43.02
32197;BME280;18697;42.770;23.400;2022-10-16T07:33:36;96530.41;;;19.67;44.40
32197;BME280;18697;42.770;23.400;2022-10-16T07:36:01;96528.78;;;19.18;45.28
32197;BME280;18697;42.770;23.400;2022-10-16T07:38:27;96538.44;;;19.11;47.01
32197;BME280;18697;42.770;23.400;2022-10-16T07:41:00;96525.72;;;19.53;46.67
32197;BME280;18697;42.770;23.400;2022-10-16T07:43:27;96529.16;;;19.36;45.57
32197;BME280;18697;42.770;23.400;2022-10-16T07:45:53;96516.84;;;18.71;47.07
32197;BME280;18697;42.770;23.400;2022-10-16T07:48:18;96522.88;;;19.16;46.74
32197;BME280;18697;42.770;23.400;2022-10-16T07:50:45;96524.81;;;19.04;46.56
32197;BME280;18697;42.770;23.400;2022-10-16T07:53:11;96520.09;;;19.21;46.21
32197;BME280;18697;42.770;23.400;2022-10-16T07:55:36;96526.03;;;18.46;46.71
32197;BME280;18697;42.770;23.400;2022-10-16T07:58:02;96533.44;;;18.23;49.41
32197;BME280;18697;42.770;23.400;2022-10-16T08:00:27;96526.81;;;18.46;48.48
32197;BME280;18697;42.770;23.400;2022-10-16T08:02:52;96532.41;;;18.66;47.48
32197;BME280;18697;42.770;23.400;2022-10-16T08:05:18;96535.44;;;18.63;48.64
32197;BME280;18697;42.770;23.400;2022-10-16T08:07:48;96540.75;;;18.35;48.93
32197;BME280;18697;42.770;23.400;2022-10-16T08:10:19;96527.31;;;18.70;48.92
32197;BME280;18697;42.770;23.400;2022-10-16T08:12:45;96528.88;;;19.29;47.76
32197;BME280;18697;42.770;23.400;2022-10-16T08:15:10;96528.63;;;19.69;46.37
32197;BME280;18697;42.770;23.400;2022-10-16T08:17:36;96523.94;;;20.09;45.21
32197;BME280;18697;42.770;23.400;2022-10-16T08:20:02;96526.88;;;20.37;45.74
32197;BME280;18697;42.770;23.400;2022-10-16T08:22:27;96535.19;;;19.92;45.41
32197;BME280;18697;42.770;23.400;2022-10-16T08:24:53;96523.84;;;19.81;45.23
32197;BME280;18697;42.770;23.400;2022-10-16T08:27:18;96515.50;;;19.24;46.46
32197;BME280;18697;42.770;23.400;2022-10-16T08:29:44;96516.53;;;19.58;46.34
32197;BME280;18697;42.770;23.400;2022-10-16T08:32:09;96513.59;;;18.78;47.44
32197;BME280;18697;42.770;23.400;2022-10-16T08:34:34;96513.41;;;18.61;47.98
32197;BME280;18697;42.770;23.400;2022-10-16T08:37:00;96517.75;;;18.36;47.03
32197;BME280;18697;42.770;23.400;2022-10-16T08:39:25;96519.97;;;18.53;48.42
32197;BME280;18697;42.770;23.400;2022-10-16T08:49:27;96520.97;;;19.01;46.20
32197;BME280;18697;42.770;23.400;2022-10-16T08:51:55;96520.59;;;18.88;46.11
32197;BME280;18697;42.770;23.400;2022-10-16T08:54:32;96533.84;;;18.82;44.07
32197;BME280;18697;42.770;23.400;2022-10-16T08:57:11;96531.72;;;19.03;44.42
32197;BME280;18697;42.770;23.400;2022-10-16T08:59:39;96525.56;;;19.36;43.43
32197;BME280;18697;42.770;23.400;2022-10-16T09:12:51;96517.88;;;19.31;44.35
32197;BME280;18697;42.770;23.400;2022-10-16T09:23:35;96507.94;;;18.78;45.72
32197;BME280;18697;42.770;23.400;2022-10-16T09:26:02;96514.78;;;19.34;44.12
32197;BME280;18697;42.770;23.400;2022-10-16T09:28:28;96511.66;;;19.58;43.35
32197;BME280;18697;42.770;23.400;2022-10-16T09:30:53;96510.16;;;20.22;43.66
32197;BME280;18697;42.770;23.400;2022-10-16T09:33:22;96512.13;;;20.70;41.46
32197;BME280;18697;42.770;23.400;2022-10-16T09:35:50;96512.34;;;20.55;40.73
32197;BME280;18697;42.770;23.400;2022-10-16T09:38:30;96513.91;;;20.67;41.99
32197;BME280;18697;42.770;23.400;2022-10-16T09:40:57;96506.06;;;20.23;41.53
32197;BME280;18697;42.770;23.400;2022-10-16T09:43:41;96508.28;;;20.79;40.94
32197;BME280;18697;42.770;23.400;2022-10-16T09:46:19;96514.50;;;20.18;41.21
32197;BME280;18697;42.770;23.400;2022-10-16T09:48:50;96495.69;;;20.85;41.07
32197;BME280;18697;42.770;23.400;2022-10-16T09:51:21;96489.81;;;21.34;41.06
32197;BME280;18697;42.770;23.400;2022-10-16T09:53:47;96491.84;;;21.16;39.37
32197;BME280;18697;42.770;23.400;2022-10-16T09:56:34;96492.59;;;20.55;40.47
32197;BME280;18697;42.770;23.400;2022-10-16T09:59:22;96492.88;;;20.91;40.38
32197;BME280;18697;42.770;23.400;2022-10-16T10:01:54;96483.13;;;20.92;40.28
32197;BME280;18697;42.770;23.400;2022-10-16T10:04:22;96488.50;;;20.95;40.07
32197;BME280;18697;42.770;23.400;2022-10-16T10:06:55;96476.97;;;20.88;39.70
32197;BME280;18697;42.770;23.400;2022-10-16T10:09:44;96483.63;;;20.96;41.68
32197;BME280;18697;42.770;23.400;2022-10-16T10:12:21;96477.16;;;21.57;40.53
32197;BME280;18697;42.770;23.400;2022-10-16T10:14:48;96477.06;;;21.90;39.34
32197;BME280;18697;42.770;23.400;2022-10-16T10:17:22;96475.03;;;21.91;38.27
32197;BME280;18697;42.770;23.400;2022-10-16T10:22:40;96475.31;;;21.82;38.91
32197;BME280;18697;42.770;23.400;2022-10-16T10:31:03;96464.63;;;21.19;39.38
32197;BME280;18697;42.770;23.400;2022-10-16T10:36:39;96450.69;;;21.60;39.44
32197;BME280;18697;42.770;23.400;2022-10-16T10:39:09;96452.06;;;21.14;39.52
32197;BME280;18697;42.770;23.400;2022-10-16T10:58:15;96440.03;;;21.94;38.88
32197;BME280;18697;42.770;23.400;2022-10-16T11:00:54;96432.66;;;21.74;38.76
32197;BME280;18697;42.770;23.400;2022-10-16T11:06:07;96426.13;;;21.38;38.62
32197;BME280;18697;42.770;23.400;2022-10-16T11:08:38;96413.00;;;21.46;39.31
32197;BME280;18697;42.770;23.400;2022-10-16T11:11:16;96429.44;;;21.48;39.63
32197;BME280;18697;42.770;23.400;2022-10-16T11:14:26;96426.59;;;21.48;38.49
32197;BME280;18697;42.770;23.400;2022-10-16T11:16:53;96418.63;;;21.46;39.30
32197;BME280;18697;42.770;23.400;2022-10-16T11:22:18;96412.75;;;21.16;38.78
32197;BME280;18697;42.770;23.400;2022-10-16T11:24:58;96406.88;;;21.09;40.05
32197;BME280;18697;42.770;23.400;2022-10-16T11:28:31;96407.13;;;21.16;37.50
32197;BME280;18697;42.770;23.400;2022-10-16T11:33:28;96399.72;;;21.82;36.67
32197;BME280;18697;42.770;23.400;2022-10-16T11:36:06;96415.91;;;21.87;36.13
32197;BME280;18697;42.770;23.400;2022-10-16T11:41:27;96397.63;;;22.41;34.53
32197;BME280;18697;42.770;23.400;2022-10-16T11:44:06;96413.06;;;22.40;34.27
32197;BME280;18697;42.770;23.400;2022-10-16T11:46:36;96418.72;;;22.75;35.73
32197;BME280;18697;42.770;23.400;2022-10-16T11:49:12;96425.00;;;22.98;32.72
32197;BME280;18697;42.770;23.400;2022-10-16T11:51:43;96413.22;;;23.18;32.75
32197;BME280;18697;42.770;23.400;2022-10-16T11:54:36;96417.16;;;23.64;30.66
32197;BME280;18697;42.770;23.400;2022-10-16T11:57:12;96422.38;;;23.79;31.12
32197;BME280;18697;42.770;23.400;2022-10-16T12:08:01;96426.09;;;23.92;29.41
32197;BME280;18697;42.770;23.400;2022-10-16T12:10:29;96422.09;;;24.01;29.12
32197;BME280;18697;42.770;23.400;2022-10-16T12:12:57;96420.50;;;24.24;29.64
32197;BME280;18697;42.770;23.400;2022-10-16T12:15:30;96425.19;;;24.22;28.08
32197;BME280;18697;42.770;23.400;2022-10-16T12:17:56;96424.31;;;23.89;27.38
32197;BME280;18697;42.770;23.400;2022-10-16T12:20:32;96428.75;;;23.36;28.42
32197;BME280;18697;42.770;23.400;2022-10-16T12:23:23;96423.09;;;22.82;29.25
32197;BME280;18697;42.770;23.400;2022-10-16T12:25:54;96419.59;;;23.00;30.46
32197;BME280;18697;42.770;23.400;2022-10-16T12:28:25;96423.59;;;23.10;29.98
32197;BME280;18697;42.770;23.400;2022-10-16T12:30:58;96411.56;;;23.28;29.28
32197;BME280;18697;42.770;23.400;2022-10-16T12:33:26;96422.13;;;23.28;29.46
32197;BME280;18697;42.770;23.400;2022-10-16T12:35:53;96420.88;;;23.53;28.88
32197;BME280;18697;42.770;23.400;2022-10-16T12:38:49;96419.88;;;23.75;28.26
32197;BME280;18697;42.770;23.400;2022-10-16T12:41:25;96427.44;;;23.67;28.09
32197;BME280;18697;42.770;23.400;2022-10-16T12:43:52;96423.31;;;23.87;28.09
32197;BME280;18697;42.770;23.400;2022-10-16T12:48:44;96428.34;;;24.18;27.11
32197;BME280;18697;42.770;23.400;2022-10-16T12:53:45;96436.69;;;23.13;28.33
32197;BME280;18697;42.770;23.400;2022-10-16T12:56:22;96436.47;;;22.81;29.33
32197;BME280;18697;42.770;23.400;2022-10-16T12:59:15;96428.38;;;22.61;28.99
32197;BME280;18697;42.770;23.400;2022-10-16T13:02:18;96441.44;;;22.70;28.81
32197;BME280;18697;42.770;23.400;2022-10-16T13:04:53;96440.59;;;22.39;29.27
32197;BME280;18697;42.770;23.400;2022-10-16T13:07:38;96436.78;;;22.31;29.17
32197;BME280;18697;42.770;23.400;2022-10-16T13:19:24;96437.47;;;20.77;29.96
32197;BME280;18697;42.770;23.400;2022-10-16T13:22:45;96436.69;;;20.65;30.15
32197;BME280;18697;42.770;23.400;2022-10-16T13:30:28;96434.38;;;20.75;30.56
32197;BME280;18697;42.770;23.400;2022-10-16T13:33:15;96424.63;;;20.64;30.27
32197;BME280;18697;42.770;23.400;2022-10-16T13:35:50;96430.78;;;20.63;31.44
32197;BME280;18697;42.770;23.400;2022-10-16T13:38:19;96437.88;;;20.36;31.58
32197;BME280;18697;42.770;23.400;2022-10-16T13:41:17;96436.56;;;20.26;31.74
32197;BME280;18697;42.770;23.400;2022-10-16T13:43:46;96431.00;;;20.43;31.78
32197;BME280;18697;42.770;23.400;2022-10-16T13:48:39;96434.34;;;20.41;33.40
32197;BME280;18697;42.770;23.400;2022-10-16T13:53:37;96434.09;;;20.45;32.29
32197;BME280;18697;42.770;23.400;2022-10-16T13:56:04;96424.84;;;20.39;32.81
32197;BME280;18697;42.770;23.400;2022-10-16T13:58:30;96435.38;;;20.55;33.11
32197;BME280;18697;42.770;23.400;2022-10-16T14:01:02;96444.00;;;20.18;32.33
32197;BME280;18697;42.770;23.400;2022-10-16T14:03:28;96444.47;;;19.99;33.19
32197;BME280;18697;42.770;23.400;2022-10-16T14:05:58;96448.03;;;19.94;33.51
32197;BME280;18697;42.770;23.400;2022-10-16T14:08:25;96439.38;;;20.15;34.40
32197;BME280;18697;42.770;23.400;2022-10-16T14:10:54;96445.78;;;20.21;34.47
32197;BME280;18697;42.770;23.400;2022-10-16T14:13:29;96436.31;;;20.24;34.27
32197;BME280;18697;42.770;23.400;2022-10-16T14:15:56;96441.69;;;20.16;33.94
32197;BME280;18697;42.770;23.400;2022-10-16T14:18:25;96446.53;;;20.05;34.14
32197;BME280;18697;42.770;23.400;2022-10-16T14:20:52;96442.94;;;19.98;34.83
32197;BME280;18697;42.770;23.400;2022-10-16T14:23:38;96443.44;;;19.97;34.68
32197;BME280;18697;42.770;23.400;2022-10-16T14:28:36;96445.38;;;19.68;34.24
32197;BME280;18697;42.770;23.400;2022-10-16T14:33:45;96447.72;;;19.38;34.65
32197;BME280;18697;42.770;23.400;2022-10-16T14:38:38;96448.19;;;19.26;34.95
32197;BME280;18697;42.770;23.400;2022-10-16T14:41:05;96448.06;;;19.09;35.80
32197;BME280;18697;42.770;23.400;2022-10-16T14:43:37;96450.53;;;18.96;35.90
32197;BME280;18697;42.770;23.400;2022-10-16T14:46:07;96449.44;;;18.88;36.54
32197;BME280;18697;42.770;23.400;2022-10-16T14:48:34;96444.28;;;18.81;36.36
32197;BME280;18697;42.770;23.400;2022-10-16T14:50:59;96452.25;;;18.88;36.63
32197;BME280;18697;42.770;23.400;2022-10-16T14:53:25;96464.19;;;18.77;36.66
32197;BME280;18697;42.770;23.400;2022-10-16T14:55:50;96465.59;;;18.61;36.76
32197;BME280;18697;42.770;23.400;2022-10-16T14:58:21;96467.69;;;18.66;37.20
32197;BME280;18697;42.770;23.400;2022-10-16T15:00:48;96468.47;;;18.41;37.39